Time;durP1;ratioP1;P1;durP2;ratioP2;P2;SDS_P1;SDS_P2;PMS_P1;PMS_P2;Temp;Humidity;BMP_temperature;BMP_pressure;BME280_temperature;BME280_humidity;BME280_pressure;Samples;Min_cycle;Max_cycle;Signal;HPM_P1;HPM_P2
2023/06/25 00:01:16;;;;;;;26.45;11.60;;;;;;;;;;5053923;28;20032;-79
2023/06/25 00:03:41;;;;;;;29.52;12.15;;;;;;;;;;5054168;28;20451;-78
2023/06/25 00:06:07;;;;;;;33.33;12.38;;;;;;;;;;5054119;28;20048;-77
2023/06/25 00:08:32;;;;;;;29.25;11.77;;;;;;;;;;5057843;28;20021;-79
2023/06/25 00:10:57;;;;;;;34.60;12.55;;;;;;;;;;5058368;28;20029;-79
2023/06/25 00:13:23;;;;;;;33.80;12.25;;;;;;;;;;5040611;28;20029;-78
2023/06/25 00:15:49;;;;;;;33.67;12.30;;;;;;;;;;5058001;28;20367;-79
2023/06/25 00:18:15;;;;;;;24.50;11.85;;;;;;;;;;5058231;28;20037;-78
2023/06/25 00:20:40;;;;;;;33.58;11.75;;;;;;;;;;5057953;28;20034;-78
2023/06/25 00:23:06;;;;;;;32.15;11.38;;;;;;;;;;5073376;28;20041;-79
2023/06/25 00:25:31;;;;;;;27.73;10.85;;;;;;;;;;5057798;28;20065;-79
2023/06/25 00:27:57;;;;;;;30.98;10.63;;;;;;;;;;5040032;28;20386;-79
2023/06/25 00:30:23;;;;;;;34.30;11.57;;;;;;;;;;5057764;28;20079;-80
2023/06/25 00:32:54;;;;;;;26.40;11.57;;;;;;;;;;5073246;28;20033;-79
2023/06/25 00:35:24;;;;;;;32.80;11.55;;;;;;;;;;5057961;28;20032;-80
2023/06/25 00:37:49;;;;;;;;;;;;;;;;;;5072724;28;20037;-79
2023/06/25 00:40:15;;;;;;;41.15;13.15;;;;;;;;;;5073463;28;20007;-79
2023/06/25 00:42:41;;;;;;;39.90;13.48;;;;;;;;;;5057937;28;20086;-78
2023/06/25 00:45:11;;;;;;;32.97;12.55;;;;;;;;;;5057710;28;20032;-79
2023/06/25 00:47:41;;;;;;;34.70;12.88;;;;;;;;;;5057779;28;20090;-79
2023/06/25 00:50:11;;;;;;;38.40;12.77;;;;;;;;;;5072845;28;20080;-79
2023/06/25 00:52:40;;;;;;;32.33;11.75;;;;;;;;;;5072705;28;20416;-79
2023/06/25 00:55:08;;;;;;;36.28;12.85;;;;;;;;;;5057318;28;20033;-79
2023/06/25 00:57:37;;;;;;;32.65;12.20;;;;;;;;;;5057259;28;20166;-78
2023/06/25 01:00:04;;;;;;;30.08;12.48;;;;;;;;;;5057184;28;20360;-79
2023/06/25 01:03:12;;;;;;;27.75;12.65;;;;;;;;;;5072283;28;20548;-79
2023/06/25 01:06:02;;;;;;;31.50;11.85;;;;;;;;;;4998859;28;20033;-79
2023/06/25 01:08:30;;;;;;;34.73;12.03;;;;;;;;;;5039050;28;20025;-79
2023/06/25 01:10:57;;;;;;;34.03;12.80;;;;;;;;;;5057537;28;20851;-79
2023/06/25 01:13:23;;;;;;;37.72;13.05;;;;;;;;;;5057018;28;20037;-79
2023/06/25 01:15:48;;;;;;;31.42;12.55;;;;;;;;;;5022549;28;20384;-79
2023/06/25 01:18:14;;;;;;;39.85;13.18;;;;;;;;;;5055971;28;20071;-79
2023/06/25 01:20:40;;;;;;;34.45;12.70;;;;;;;;;;5055859;28;20028;-79
2023/06/25 01:23:06;;;;;;;30.00;13.57;;;;;;;;;;5056787;28;20048;-79
2023/06/25 01:25:31;;;;;;;38.70;14.02;;;;;;;;;;5072534;28;20021;-80
2023/06/25 01:27:57;;;;;;;26.45;13.30;;;;;;;;;;5072190;28;20347;-79
2023/06/25 01:30:25;;;;;;;34.65;14.45;;;;;;;;;;5072325;28;20029;-79
2023/06/25 01:32:50;;;;;;;27.98;13.65;;;;;;;;;;5055236;28;20367;-78
2023/06/25 01:35:16;;;;;;;35.03;13.38;;;;;;;;;;5038936;28;20033;-78
2023/06/25 01:37:41;;;;;;;33.47;13.38;;;;;;;;;;5056469;28;20348;-78
2023/06/25 01:40:07;;;;;;;31.70;12.52;;;;;;;;;;5056460;28;20447;-79
2023/06/25 01:42:34;;;;;;;33.80;12.55;;;;;;;;;;5071952;28;20044;-78
2023/06/25 01:44:59;;;;;;;32.05;13.27;;;;;;;;;;5056323;28;20072;-78
2023/06/25 01:47:24;;;;;;;29.77;12.60;;;;;;;;;;5056263;28;20029;-79
2023/06/25 01:49:50;;;;;;;33.55;13.10;;;;;;;;;;5056337;28;20037;-79
2023/06/25 01:52:15;;;;;;;37.65;13.13;;;;;;;;;;5056690;28;20029;-79
2023/06/25 01:54:41;;;;;;;29.08;12.82;;;;;;;;;;5071601;28;20021;-78
2023/06/25 01:57:06;;;;;;;28.95;12.75;;;;;;;;;;5056102;28;20025;-79
2023/06/25 01:59:34;;;;;;;36.83;12.98;;;;;;;;;;5055115;28;20454;-78
2023/06/25 02:02:01;;;;;;;29.90;12.73;;;;;;;;;;5055948;28;20699;-79
2023/06/25 02:04:27;;;;;;;27.70;11.52;;;;;;;;;;5038444;28;20064;-80
2023/06/25 02:06:52;;;;;;;34.45;11.35;;;;;;;;;;5054323;28;20076;-79
2023/06/25 02:09:17;;;;;;;25.45;11.02;;;;;;;;;;5054696;28;20041;-79
2023/06/25 02:11:43;;;;;;;26.35;11.45;;;;;;;;;;5056409;28;20029;-79
2023/06/25 02:14:08;;;;;;;29.20;11.90;;;;;;;;;;5056455;28;20028;-80
2023/06/25 02:16:34;;;;;;;22.70;11.80;;;;;;;;;;5056244;28;20667;-79
2023/06/25 02:18:59;;;;;;;25.10;11.88;;;;;;;;;;5071336;28;20021;-79
2023/06/25 02:21:24;;;;;;;29.20;12.07;;;;;;;;;;5071553;28;20025;-79
2023/06/25 02:23:50;;;;;;;21.05;11.73;;;;;;;;;;5055620;28;20021;-80
2023/06/25 02:26:15;;;;;;;27.98;11.82;;;;;;;;;;5055508;28;20025;-79
2023/06/25 02:28:41;;;;;;;32.10;11.85;;;;;;;;;;5037906;28;20035;-79
2023/06/25 02:31:06;;;;;;;29.63;11.40;;;;;;;;;;5071293;28;20048;-79
2023/06/25 02:33:31;;;;;;;33.92;11.55;;;;;;;;;;5070894;28;20037;-79
2023/06/25 02:35:57;;;;;;;25.90;12.25;;;;;;;;;;5037523;28;20417;-79
2023/06/25 02:38:22;;;;;;;42.97;13.15;;;;;;;;;;5070758;28;20461;-79
2023/06/25 02:40:48;;;;;;;30.65;12.77;;;;;;;;;;5055226;28;20021;-79
2023/06/25 02:43:13;;;;;;;40.83;13.70;;;;;;;;;;5055166;28;20029;-79
2023/06/25 02:45:39;;;;;;;39.85;13.45;;;;;;;;;;5055307;28;20386;-79
2023/06/25 02:48:04;;;;;;;33.33;14.15;;;;;;;;;;5037627;28;20430;-79
2023/06/25 02:50:30;;;;;;;29.63;14.02;;;;;;;;;;5055396;28;20021;-79
2023/06/25 02:52:55;;;;;;;34.80;13.93;;;;;;;;;;5037516;28;20017;-80
2023/06/25 02:55:21;;;;;;;42.97;13.25;;;;;;;;;;5055472;28;20452;-79
2023/06/25 02:57:46;;;;;;;47.88;13.70;;;;;;;;;;5054973;28;20115;-80
2023/06/25 03:00:12;;;;;;;39.50;13.27;;;;;;;;;;5054907;28;20025;-79
2023/06/25 03:02:38;;;;;;;34.97;12.95;;;;;;;;;;5054489;28;20051;-80
2023/06/25 03:05:04;;;;;;;47.00;16.30;;;;;;;;;;5055144;28;20450;-79
2023/06/25 03:07:29;;;;;;;45.50;20.45;;;;;;;;;;5054741;28;20033;-80
2023/06/25 03:09:54;;;;;;;73.97;20.40;;;;;;;;;;5054841;28;20125;-79
2023/06/25 03:12:20;;;;;;;70.72;19.95;;;;;;;;;;5036880;28;20037;-80
2023/06/25 03:14:45;;;;;;;54.22;19.83;;;;;;;;;;5054645;28;20048;-79
2023/06/25 03:17:11;;;;;;;70.32;19.70;;;;;;;;;;5054615;28;20027;-79
2023/06/25 03:19:36;;;;;;;57.10;16.17;;;;;;;;;;5036905;28;20029;-80
2023/06/25 03:22:01;;;;;;;73.93;15.40;;;;;;;;;;5036663;28;20056;-79
2023/06/25 03:24:27;;;;;;;53.55;15.23;;;;;;;;;;5054588;28;20033;-79
2023/06/25 03:26:52;;;;;;;44.83;14.02;;;;;;;;;;5054676;28;20079;-80
2023/06/25 03:29:18;;;;;;;34.40;11.57;;;;;;;;;;5036549;28;20459;-79
2023/06/25 03:31:43;;;;;;;48.75;11.75;;;;;;;;;;5053156;28;20032;-79
2023/06/25 03:34:09;;;;;;;54.78;11.40;;;;;;;;;;5053446;28;20123;-79
2023/06/25 03:36:34;;;;;;;41.03;10.25;;;;;;;;;;5036532;28;20504;-80
2023/06/25 03:38:59;;;;;;;34.05;10.38;;;;;;;;;;5053089;28;20029;-79
2023/06/25 03:41:25;;;;;;;34.55;10.18;;;;;;;;;;5053816;28;20032;-79
2023/06/25 03:43:51;;;;;;;35.28;9.57;;;;;;;;;;5054712;28;20104;-79
2023/06/25 03:46:16;;;;;;;37.85;9.52;;;;;;;;;;5069334;28;20051;-79
2023/06/25 03:48:42;;;;;;;37.85;10.38;;;;;;;;;;5069598;28;20033;-80
2023/06/25 03:51:08;;;;;;;40.80;9.73;;;;;;;;;;5054080;28;20024;-80
2023/06/25 03:53:33;;;;;;;31.42;9.88;;;;;;;;;;5054047;28;20508;-80
2023/06/25 03:55:59;;;;;;;38.00;10.82;;;;;;;;;;5036248;28;20119;-80
2023/06/25 03:58:24;;;;;;;26.63;11.25;;;;;;;;;;5036268;28;20134;-80
2023/06/25 04:00:50;;;;;;;27.60;9.60;;;;;;;;;;5054239;28;20033;-80
2023/06/25 04:03:15;;;;;;;37.22;10.65;;;;;;;;;;5036061;28;20497;-80
2023/06/25 04:05:41;;;;;;;36.90;16.05;;;;;;;;;;5054067;28;20455;-80
2023/06/25 04:08:06;;;;;;;29.42;13.77;;;;;;;;;;5036260;28;20031;-79
2023/06/25 04:10:31;;;;;;;26.55;12.35;;;;;;;;;;5036415;28;20025;-80
2023/06/25 04:12:57;;;;;;;43.70;12.68;;;;;;;;;;5053996;28;20083;-80
2023/06/25 04:15:22;;;;;;;30.42;12.98;;;;;;;;;;5036215;28;20450;-79
2023/06/25 04:17:48;;;;;;;31.50;13.05;;;;;;;;;;5053973;28;20083;-80
2023/06/25 04:20:13;;;;;;;27.15;12.85;;;;;;;;;;5054186;28;20047;-80
2023/06/25 04:22:39;;;;;;;28.70;12.63;;;;;;;;;;5053826;28;20777;-79
2023/06/25 04:25:05;;;;;;;29.35;11.95;;;;;;;;;;5052504;28;20095;-80
2023/06/25 04:27:30;;;;;;;33.97;12.32;;;;;;;;;;5053803;28;20447;-79
2023/06/25 04:29:56;;;;;;;32.75;12.30;;;;;;;;;;5035783;28;20037;-79
2023/06/25 04:32:21;;;;;;;29.50;10.90;;;;;;;;;;5035905;28;20025;-80
2023/06/25 04:34:46;;;;;;;27.35;12.32;;;;;;;;;;5053701;28;20028;-80
2023/06/25 04:37:12;;;;;;;27.98;11.38;;;;;;;;;;5053752;28;20025;-80
2023/06/25 04:39:39;;;;;;;32.28;10.27;;;;;;;;;;5053716;28;20028;-80
2023/06/25 04:42:05;;;;;;;41.25;12.32;;;;;;;;;;5069081;28;20037;-80
2023/06/25 04:44:30;;;;;;;29.38;11.88;;;;;;;;;;5053220;28;20029;-80
2023/06/25 04:46:56;;;;;;;28.08;12.45;;;;;;;;;;5053568;28;20040;-80
2023/06/25 04:49:21;;;;;;;37.92;11.90;;;;;;;;;;5053597;28;20096;-80
2023/06/25 04:51:47;;;;;;;31.45;11.35;;;;;;;;;;5069064;28;20405;-80
2023/06/25 04:54:13;;;;;;;41.10;12.57;;;;;;;;;;5055436;28;20466;-79
2023/06/25 04:56:38;;;;;;;41.85;11.38;;;;;;;;;;5072796;28;20087;-79
2023/06/25 04:59:03;;;;;;;33.65;10.93;;;;;;;;;;5057042;28;20071;-80
2023/06/25 05:01:29;;;;;;;28.83;10.57;;;;;;;;;;5057268;28;20450;-80
2023/06/25 05:03:54;;;;;;;36.65;10.45;;;;;;;;;;5039433;28;20025;-80
2023/06/25 05:06:20;;;;;;;37.42;11.07;;;;;;;;;;5057346;28;20405;-79
2023/06/25 05:08:45;;;;;;;33.30;9.88;;;;;;;;;;5072539;28;20481;-80
2023/06/25 05:11:10;;;;;;;31.42;10.57;;;;;;;;;;5055894;28;20032;-79
2023/06/25 05:13:36;;;;;;;25.73;10.40;;;;;;;;;;5056706;28;20017;-80
2023/06/25 05:16:02;;;;;;;29.38;11.68;;;;;;;;;;5057024;28;20021;-80
2023/06/25 05:18:28;;;;;;;28.83;11.45;;;;;;;;;;5056900;28;20025;-80
2023/06/25 05:20:53;;;;;;;27.83;10.77;;;;;;;;;;5039068;28;20355;-80
2023/06/25 05:23:19;;;;;;;36.03;11.43;;;;;;;;;;5056724;28;20036;-79
2023/06/25 05:25:44;;;;;;;38.67;10.65;;;;;;;;;;5056730;28;20029;-80
2023/06/25 05:28:10;;;;;;;37.58;10.30;;;;;;;;;;5056484;28;20029;-79
2023/06/25 05:30:36;;;;;;;31.15;10.55;;;;;;;;;;5056607;28;20021;-79
2023/06/25 05:33:01;;;;;;;28.77;10.15;;;;;;;;;;5056668;28;20379;-80
2023/06/25 05:35:28;;;;;;;28.23;11.80;;;;;;;;;;5055316;28;20039;-80
2023/06/25 05:37:54;;;;;;;34.05;10.98;;;;;;;;;;5055005;28;20037;-79
2023/06/25 05:40:19;;;;;;;27.00;10.77;;;;;;;;;;5056766;28;20032;-79
2023/06/25 05:42:45;;;;;;;29.83;10.77;;;;;;;;;;5071522;28;20431;-79
2023/06/25 05:45:10;;;;;;;35.85;14.07;;;;;;;;;;5056822;28;20029;-79
2023/06/25 05:47:36;;;;;;;37.22;15.85;;;;;;;;;;5056333;28;20029;-79
2023/06/25 05:50:01;;;;;;;38.35;16.88;;;;;;;;;;5072094;28;20086;-80
2023/06/25 05:52:27;;;;;;;35.67;17.88;;;;;;;;;;5056207;28;20040;-80
2023/06/25 05:54:52;;;;;;;35.45;18.15;;;;;;;;;;5056214;28;20024;-80
2023/06/25 05:57:18;;;;;;;41.28;18.40;;;;;;;;;;5054903;28;20035;-79
2023/06/25 05:59:43;;;;;;;37.30;19.38;;;;;;;;;;5071545;28;20032;-79
2023/06/25 06:02:09;;;;;;;37.53;18.02;;;;;;;;;;5037969;28;20045;-79
2023/06/25 06:04:34;;;;;;;32.67;16.77;;;;;;;;;;5055644;28;20096;-80
2023/06/25 06:07:00;;;;;;;36.83;17.50;;;;;;;;;;5055015;28;20041;-79
2023/06/25 06:09:25;;;;;;;33.42;16.95;;;;;;;;;;5054567;28;20033;-80
2023/06/25 06:11:51;;;;;;;40.40;15.75;;;;;;;;;;5037593;28;20032;-80
2023/06/25 06:14:16;;;;;;;25.77;14.70;;;;;;;;;;5055575;28;20047;-80
2023/06/25 06:16:42;;;;;;;27.13;16.60;;;;;;;;;;5055733;28;20033;-80
2023/06/25 06:19:07;;;;;;;31.77;16.63;;;;;;;;;;5055445;28;20462;-80
2023/06/25 06:21:32;;;;;;;32.83;16.48;;;;;;;;;;5055310;28;20033;-80
2023/06/25 06:23:58;;;;;;;37.60;15.98;;;;;;;;;;5055652;28;20036;-79
2023/06/25 06:26:23;;;;;;;28.10;14.88;;;;;;;;;;5054920;28;20033;-80
2023/06/25 06:28:49;;;;;;;43.53;15.05;;;;;;;;;;5055195;28;20033;-80
2023/06/25 06:31:14;;;;;;;29.88;14.35;;;;;;;;;;5055173;28;20122;-80
2023/06/25 06:33:40;;;;;;;26.13;14.32;;;;;;;;;;5037528;28;20118;-80
2023/06/25 06:36:05;;;;;;;26.17;12.25;;;;;;;;;;5037346;28;20430;-79
2023/06/25 06:38:30;;;;;;;20.55;12.15;;;;;;;;;;5037199;28;20382;-80
2023/06/25 06:40:57;;;;;;;25.38;12.23;;;;;;;;;;5037222;28;20029;-79
2023/06/25 06:43:23;;;;;;;25.83;13.18;;;;;;;;;;5070148;28;20025;-80
2023/06/25 06:45:48;;;;;;;26.40;13.20;;;;;;;;;;5055014;28;20048;-79
2023/06/25 06:48:14;;;;;;;23.77;13.73;;;;;;;;;;5036988;28;20531;-79
2023/06/25 06:50:39;;;;;;;24.08;11.95;;;;;;;;;;5055115;28;20020;-80
2023/06/25 06:53:05;;;;;;;35.15;13.68;;;;;;;;;;5037107;28;20024;-79
2023/06/25 06:55:31;;;;;;;32.03;13.38;;;;;;;;;;5054691;28;20108;-79
2023/06/25 06:57:57;;;;;;;23.88;12.40;;;;;;;;;;5054644;28;20354;-80
2023/06/25 07:00:22;;;;;;;19.70;11.98;;;;;;;;;;5054695;28;20029;-80
2023/06/25 07:02:47;;;;;;;19.92;12.68;;;;;;;;;;5054417;28;20052;-79
2023/06/25 07:05:13;;;;;;;21.75;11.88;;;;;;;;;;5054881;28;20036;-80
2023/06/25 07:07:40;;;;;;;22.85;12.27;;;;;;;;;;5036587;28;20371;-80
2023/06/25 07:10:05;;;;;;;26.98;13.07;;;;;;;;;;5069540;28;20477;-79
2023/06/25 07:12:31;;;;;;;24.35;15.40;;;;;;;;;;5054686;28;20029;-80
2023/06/25 07:14:56;;;;;;;26.92;15.55;;;;;;;;;;5054604;28;20119;-80
2023/06/25 07:17:21;;;;;;;29.55;15.70;;;;;;;;;;5053588;28;20032;-81
2023/06/25 07:19:47;;;;;;;26.42;15.15;;;;;;;;;;5054330;28;20029;-80
2023/06/25 07:22:13;;;;;;;27.80;16.10;;;;;;;;;;5070027;28;20055;-80
2023/06/25 07:24:38;;;;;;;26.17;16.02;;;;;;;;;;5053980;28;20374;-80
2023/06/25 07:27:04;;;;;;;25.13;14.02;;;;;;;;;;5054167;28;20038;-80
2023/06/25 07:29:29;;;;;;;28.23;15.63;;;;;;;;;;5054436;28;20086;-80
2023/06/25 07:31:55;;;;;;;23.48;15.77;;;;;;;;;;5053991;28;20036;-80
2023/06/25 07:34:21;;;;;;;29.77;14.60;;;;;;;;;;5069470;28;20068;-81
2023/06/25 07:36:46;;;;;;;25.83;14.88;;;;;;;;;;5054005;28;20029;-81
2023/06/25 07:39:24;;;;;;;22.63;14.90;;;;;;;;;;5053751;28;20468;-81
2023/06/25 07:41:49;;;;;;;20.92;12.57;;;;;;;;;;5053985;28;20112;-81
2023/06/25 07:44:15;;;;;;;21.35;12.55;;;;;;;;;;5053863;28;20439;-80
2023/06/25 07:46:40;;;;;;;16.42;11.20;;;;;;;;;;5054170;28;20033;-79
2023/06/25 07:49:05;;;;;;;19.10;9.85;;;;;;;;;;5054043;28;20063;-81
2023/06/25 07:51:31;;;;;;;16.58;9.55;;;;;;;;;;5054061;28;20446;-80
2023/06/25 07:53:56;;;;;;;17.23;10.48;;;;;;;;;;5053714;28;20032;-81
2023/06/25 07:56:22;;;;;;;23.02;10.00;;;;;;;;;;5053981;28;20448;-81
2023/06/25 07:58:47;;;;;;;18.83;9.80;;;;;;;;;;5053992;28;20446;-81
2023/06/25 08:01:12;;;;;;;13.73;9.35;;;;;;;;;;5053742;28;20036;-81
2023/06/25 08:03:38;;;;;;;19.80;8.50;;;;;;;;;;5035978;28;20043;-81
2023/06/25 08:06:03;;;;;;;12.18;8.35;;;;;;;;;;5054037;28;20442;-81
2023/06/25 08:08:29;;;;;;;18.17;8.45;;;;;;;;;;5053929;28;20079;-82
2023/06/25 08:10:54;;;;;;;11.43;7.97;;;;;;;;;;5036121;28;20021;-82
2023/06/25 08:13:20;;;;;;;12.20;7.68;;;;;;;;;;5053873;28;20040;-81
2023/06/25 08:15:46;;;;;;;14.85;7.75;;;;;;;;;;5053849;28;20108;-81
2023/06/25 08:18:11;;;;;;;15.70;7.70;;;;;;;;;;5053785;28;20486;-81
2023/06/25 08:20:37;;;;;;;13.38;8.88;;;;;;;;;;5053753;28;20060;-81
2023/06/25 08:23:02;;;;;;;15.15;8.38;;;;;;;;;;5053446;28;20029;-81
2023/06/25 08:25:30;;;;;;;18.02;7.22;;;;;;;;;;5035917;28;20025;-81
2023/06/25 08:27:56;;;;;;;17.48;8.55;;;;;;;;;;5069120;28;20025;-81
2023/06/25 08:30:21;;;;;;;15.63;7.90;;;;;;;;;;5057558;28;20116;-82
2023/06/25 08:32:47;;;;;;;14.90;7.30;;;;;;;;;;5056534;28;20029;-82
2023/06/25 08:35:12;;;;;;;13.43;7.03;;;;;;;;;;5056406;28;20025;-81
2023/06/25 08:37:38;;;;;;;13.02;7.80;;;;;;;;;;5056513;28;20032;-81
2023/06/25 08:40:04;;;;;;;11.68;7.40;;;;;;;;;;5057413;28;20171;-81
2023/06/25 08:42:30;;;;;;;13.10;7.72;;;;;;;;;;5057580;28;20029;-82
2023/06/25 08:44:56;;;;;;;12.40;7.10;;;;;;;;;;5072811;28;20029;-80
2023/06/25 08:47:23;;;;;;;12.18;7.60;;;;;;;;;;5057332;28;20029;-82
2023/06/25 08:49:49;;;;;;;13.30;7.10;;;;;;;;;;5072774;28;20183;-83
2023/06/25 08:52:15;;;;;;;12.50;7.72;;;;;;;;;;5057077;28;20031;-83
2023/06/25 08:54:40;;;;;;;11.43;7.43;;;;;;;;;;5072908;28;20429;-83
2023/06/25 08:57:07;;;;;;;12.00;7.47;;;;;;;;;;5072602;28;20025;-83
2023/06/25 08:59:32;;;;;;;18.50;8.35;;;;;;;;;;5055983;28;20494;-83
2023/06/25 09:01:58;;;;;;;12.35;7.53;;;;;;;;;;5056801;28;20044;-84
2023/06/25 09:04:24;;;;;;;11.90;7.63;;;;;;;;;;5072415;28;20029;-84
2023/06/25 09:06:49;;;;;;;12.82;8.27;;;;;;;;;;5072102;28;20083;-83
2023/06/25 09:09:15;;;;;;;14.23;10.10;;;;;;;;;;5039146;28;20037;-84
2023/06/25 09:11:40;;;;;;;15.68;9.82;;;;;;;;;;5057019;28;20035;-83
2023/06/25 09:14:06;;;;;;;19.92;9.95;;;;;;;;;;5057124;28;20343;-84
2023/06/25 09:16:32;;;;;;;16.23;10.27;;;;;;;;;;5055709;28;20025;-84
2023/06/25 09:18:59;;;;;;;15.23;9.20;;;;;;;;;;5072214;28;20021;-84
2023/06/25 09:21:24;;;;;;;12.90;10.68;;;;;;;;;;5072070;28;20040;-84
2023/06/25 09:23:53;;;;;;;15.68;11.65;;;;;;;;;;5055423;28;20029;-84
2023/06/25 09:26:18;;;;;;;19.23;11.10;;;;;;;;;;5055558;28;20040;-84
2023/06/25 09:28:59;;;;;;;17.58;11.23;;;;;;;;;;5072299;28;20025;-84
2023/06/25 09:31:24;;;;;;;15.00;11.45;;;;;;;;;;5071024;28;20040;-83
2023/06/25 09:33:52;;;;;;;14.93;11.20;;;;;;;;;;5055306;28;20033;-83
2023/06/25 09:36:18;;;;;;;16.55;11.40;;;;;;;;;;5056106;28;20029;-83
2023/06/25 09:38:46;;;;;;;16.17;10.90;;;;;;;;;;5055214;28;20422;-84
2023/06/25 09:41:13;;;;;;;19.00;12.65;;;;;;;;;;5054323;28;20148;-83
2023/06/25 09:43:39;;;;;;;15.50;12.00;;;;;;;;;;5054283;28;20079;-84
2023/06/25 09:46:04;;;;;;;23.38;13.90;;;;;;;;;;5070599;28;20479;-84
2023/06/25 09:48:30;;;;;;;16.60;12.60;;;;;;;;;;5070067;28;20461;-83
2023/06/25 09:50:56;;;;;;;19.48;12.63;;;;;;;;;;5070239;28;20500;-83
2023/06/25 09:53:22;;;;;;;16.02;11.65;;;;;;;;;;5055100;28;20115;-84
2023/06/25 09:55:48;;;;;;;18.30;11.95;;;;;;;;;;5054781;28;20155;-84
2023/06/25 09:58:14;;;;;;;18.27;12.65;;;;;;;;;;5036840;28;20119;-84
2023/06/25 10:00:39;;;;;;;21.23;12.88;;;;;;;;;;5069990;28;20021;-84
2023/06/25 10:03:04;;;;;;;21.27;13.27;;;;;;;;;;5069554;28;20382;-83
2023/06/25 10:05:30;;;;;;;18.40;14.02;;;;;;;;;;5053175;28;20112;-84
2023/06/25 10:07:56;;;;;;;24.63;15.60;;;;;;;;;;5053138;28;20029;-84
2023/06/25 10:10:29;;;;;;;21.77;15.02;;;;;;;;;;5070997;28;20473;-83
2023/06/25 10:12:54;;;;;;;20.20;15.30;;;;;;;;;;5054344;28;20082;-84
2023/06/25 10:15:32;;;;;;;23.38;16.40;;;;;;;;;;5054658;28;20029;-83
2023/06/25 10:18:02;;;;;;;23.05;14.80;;;;;;;;;;5055091;28;20482;-84
2023/06/25 10:20:28;;;;;;;19.08;13.93;;;;;;;;;;5070815;28;20028;-84
2023/06/25 10:23:10;;;;;;;20.08;14.00;;;;;;;;;;5054027;28;20024;-84
2023/06/25 10:25:36;;;;;;;18.48;13.88;;;;;;;;;;5037669;28;20032;-84
2023/06/25 10:28:12;;;;;;;19.73;13.18;;;;;;;;;;5054104;28;20116;-84
2023/06/25 10:30:38;;;;;;;18.27;12.00;;;;;;;;;;5052436;28;20021;-84
2023/06/25 10:33:04;;;;;;;20.40;12.43;;;;;;;;;;5053685;28;20029;-84
2023/06/25 10:35:35;;;;;;;16.90;12.27;;;;;;;;;;5053706;28;20024;-84
2023/06/25 10:38:00;;;;;;;16.02;10.98;;;;;;;;;;5053761;28;20052;-83
2023/06/25 10:40:32;;;;;;;14.65;10.85;;;;;;;;;;5053481;28;20676;-84
2023/06/25 10:42:57;;;;;;;15.38;10.73;;;;;;;;;;5052640;28;20056;-84
2023/06/25 10:45:23;;;;;;;14.05;10.30;;;;;;;;;;5070678;28;20029;-84
2023/06/25 10:47:48;;;;;;;15.20;11.70;;;;;;;;;;5070345;28;20033;-84
2023/06/25 10:50:17;;;;;;;17.10;11.73;;;;;;;;;;5053617;28;20090;-84
2023/06/25 10:52:42;;;;;;;17.08;11.32;;;;;;;;;;5054333;28;20056;-85
2023/06/25 10:55:08;;;;;;;20.13;11.80;;;;;;;;;;5054623;28;20571;-84
2023/06/25 10:57:33;;;;;;;16.65;11.65;;;;;;;;;;5036804;28;20379;-85
2023/06/25 10:59:58;;;;;;;17.40;11.57;;;;;;;;;;5054996;28;20393;-84
2023/06/25 11:02:25;;;;;;;15.02;11.73;;;;;;;;;;5054374;28;20493;-84
2023/06/25 11:04:55;;;;;;;21.02;11.70;;;;;;;;;;5054934;28;20028;-84
2023/06/25 11:07:20;;;;;;;19.83;12.65;;;;;;;;;;5037108;28;20356;-84
2023/06/25 11:09:59;;;;;;;17.13;12.77;;;;;;;;;;5054851;28;20094;-84
2023/06/25 11:12:25;;;;;;;15.20;11.85;;;;;;;;;;5053635;28;20081;-84
2023/06/25 11:14:51;;;;;;;15.10;11.73;;;;;;;;;;5037451;28;20033;-84
2023/06/25 11:17:16;;;;;;;17.80;11.32;;;;;;;;;;5054300;28;20481;-84
2023/06/25 11:19:42;;;;;;;19.42;12.23;;;;;;;;;;5054565;28;20347;-84
2023/06/25 11:22:07;;;;;;;19.08;13.02;;;;;;;;;;5054301;28;20033;-84
2023/06/25 11:24:34;;;;;;;22.38;13.02;;;;;;;;;;5053086;28;20033;-85
2023/06/25 11:27:00;;;;;;;20.73;12.45;;;;;;;;;;5054371;28;20108;-84
2023/06/25 11:29:37;;;;;;;24.63;13.05;;;;;;;;;;5054359;28;20530;-84
2023/06/25 11:32:05;;;;;;;19.08;13.52;;;;;;;;;;5054053;28;20446;-84
2023/06/25 11:34:31;;;;;;;19.67;12.90;;;;;;;;;;5037284;28;20362;-84
2023/06/25 11:36:56;;;;;;;22.08;13.52;;;;;;;;;;5069686;28;20025;-84
2023/06/25 11:39:22;;;;;;;20.02;12.13;;;;;;;;;;5069692;28;20025;-84
2023/06/25 11:41:47;;;;;;;21.65;13.32;;;;;;;;;;5069513;28;20033;-84
2023/06/25 11:44:19;;;;;;;20.33;13.27;;;;;;;;;;5054183;28;20036;-83
2023/06/25 11:46:49;;;;;;;22.85;14.25;;;;;;;;;;5054106;28;20078;-84
2023/06/25 11:49:14;;;;;;;22.35;14.07;;;;;;;;;;5052957;28;20029;-83
2023/06/25 11:51:39;;;;;;;25.40;15.05;;;;;;;;;;5052988;28;20029;-84
2023/06/25 11:54:05;;;;;;;23.35;14.00;;;;;;;;;;5052862;28;20029;-84
2023/06/25 11:56:30;;;;;;;26.48;15.48;;;;;;;;;;5053854;28;20095;-84
2023/06/25 11:58:56;;;;;;;25.92;14.52;;;;;;;;;;5053903;28;20413;-83
2023/06/25 12:01:21;;;;;;;25.15;13.48;;;;;;;;;;5053926;28;20025;-84
2023/06/25 12:03:47;;;;;;;30.35;15.23;;;;;;;;;;5068789;28;20033;-83
2023/06/25 12:06:12;;;;;;;28.25;15.63;;;;;;;;;;5069427;28;20021;-84
2023/06/25 12:08:37;;;;;;;28.80;17.25;;;;;;;;;;5053803;28;20017;-84
2023/06/25 12:11:03;;;;;;;31.83;16.65;;;;;;;;;;5053740;28;20386;-83
2023/06/25 12:13:28;;;;;;;28.05;16.83;;;;;;;;;;5052414;28;20454;-84
2023/06/25 12:15:54;;;;;;;28.05;17.23;;;;;;;;;;5053412;28;20028;-83
2023/06/25 12:18:21;;;;;;;31.15;18.20;;;;;;;;;;5053929;28;20029;-83
2023/06/25 12:20:47;;;;;;;33.08;19.63;;;;;;;;;;5052421;28;20113;-84
2023/06/25 12:23:12;;;;;;;33.80;18.80;;;;;;;;;;5068934;28;20157;-84
2023/06/25 12:25:39;;;;;;;31.77;18.70;;;;;;;;;;5069223;28;20043;-83
2023/06/25 12:28:05;;;;;;;32.25;18.30;;;;;;;;;;5053311;28;20025;-83
2023/06/25 12:30:30;;;;;;;35.40;18.60;;;;;;;;;;5053542;28;20029;-84
2023/06/25 12:32:55;;;;;;;34.60;20.23;;;;;;;;;;5053444;28;20064;-83
2023/06/25 12:35:21;;;;;;;38.85;21.48;;;;;;;;;;5053459;28;20025;-84
2023/06/25 12:37:47;;;;;;;40.92;22.45;;;;;;;;;;5053582;28;20025;-84
2023/06/25 12:40:13;;;;;;;44.70;22.98;;;;;;;;;;5068873;28;20025;-84
2023/06/25 12:42:39;;;;;;;41.20;23.20;;;;;;;;;;5053072;28;20098;-84
2023/06/25 12:45:06;;;;;;;46.08;25.23;;;;;;;;;;5053747;28;20033;-83
2023/06/25 12:47:31;;;;;;;54.92;27.83;;;;;;;;;;5053315;28;20104;-84
2023/06/25 12:49:56;;;;;;;52.35;27.10;;;;;;;;;;5053178;28;20061;-83
2023/06/25 12:52:22;;;;;;;52.88;27.25;;;;;;;;;;5053570;28;20115;-83
2023/06/25 12:54:47;;;;;;;58.42;29.13;;;;;;;;;;5069036;28;20108;-83
2023/06/25 12:57:13;;;;;;;55.33;28.83;;;;;;;;;;5052966;28;20114;-83
2023/06/25 12:59:38;;;;;;;56.53;28.95;;;;;;;;;;5053409;28;20025;-83
2023/06/25 13:02:04;;;;;;;58.78;29.73;;;;;;;;;;5053046;28;20103;-84
2023/06/25 13:04:30;;;;;;;54.58;28.45;;;;;;;;;;5053475;28;20068;-84
2023/06/25 13:06:55;;;;;;;59.95;28.67;;;;;;;;;;5053273;28;20025;-83
2023/06/25 13:09:21;;;;;;;52.55;28.15;;;;;;;;;;5053420;28;20040;-83
2023/06/25 13:11:46;;;;;;;45.28;27.10;;;;;;;;;;5052939;28;20032;-84
2023/06/25 13:14:12;;;;;;;44.17;26.60;;;;;;;;;;5036302;28;20076;-83
2023/06/25 13:16:37;;;;;;;45.38;25.92;;;;;;;;;;5057591;28;20057;-83
2023/06/25 13:19:02;;;;;;;45.63;25.83;;;;;;;;;;5058429;28;20550;-84
2023/06/25 13:21:28;;;;;;;42.35;25.60;;;;;;;;;;5057631;28;20036;-83
2023/06/25 13:23:53;;;;;;;42.13;23.73;;;;;;;;;;5070112;28;20044;-84
2023/06/25 13:26:19;;;;;;;40.15;22.95;;;;;;;;;;5065280;28;20174;-84
2023/06/25 13:28:44;;;;;;;35.55;20.75;;;;;;;;;;5053471;28;20083;-84
2023/06/25 13:31:09;;;;;;;31.85;18.88;;;;;;;;;;5068619;28;20021;-84
2023/06/25 13:33:35;;;;;;;27.75;18.13;;;;;;;;;;5067216;28;20033;-83
2023/06/25 13:36:00;;;;;;;26.95;17.92;;;;;;;;;;5056551;28;20025;-83
2023/06/25 13:38:26;;;;;;;28.73;17.60;;;;;;;;;;5056756;28;20024;-85
2023/06/25 13:40:51;;;;;;;25.80;16.13;;;;;;;;;;5056257;28;20373;-83
2023/06/25 13:43:16;;;;;;;32.88;17.23;;;;;;;;;;5056226;28;20462;-83
2023/06/25 13:45:42;;;;;;;25.83;17.05;;;;;;;;;;5056250;28;20111;-84
2023/06/25 13:48:07;;;;;;;25.98;17.83;;;;;;;;;;5056178;28;20029;-84
2023/06/25 13:50:33;;;;;;;27.08;17.42;;;;;;;;;;5056113;28;20028;-83
2023/06/25 13:52:58;;;;;;;24.95;16.83;;;;;;;;;;5056103;28;20025;-84
2023/06/25 13:55:23;;;;;;;28.45;17.25;;;;;;;;;;5055800;28;20048;-83
2023/06/25 13:57:49;;;;;;;29.30;16.75;;;;;;;;;;5055902;28;20082;-84
2023/06/25 14:00:14;;;;;;;26.13;16.70;;;;;;;;;;5055809;28;20024;-84
2023/06/25 14:02:40;;;;;;;26.05;17.92;;;;;;;;;;5055784;28;20045;-83
2023/06/25 14:05:06;;;;;;;24.17;17.23;;;;;;;;;;5055778;28;20028;-84
2023/06/25 14:07:32;;;;;;;23.05;16.27;;;;;;;;;;5038083;28;20029;-84
2023/06/25 14:09:57;;;;;;;25.35;15.00;;;;;;;;;;5055463;28;20024;-84
2023/06/25 14:12:23;;;;;;;18.38;10.88;;;;;;;;;;5055758;28;20020;-84